Time;durP1;ratioP1;P1;durP2;ratioP2;P2;SDS_P1;SDS_P2;PMS_P1;PMS_P2;Temp;Humidity;BMP_temperature;BMP_pressure;BME280_temperature;BME280_humidity;BME280_pressure;Samples;Min_cycle;Max_cycle;Signal;HPM_P1;HPM_P2
2023/09/05 00:01:36;;;;;;;2.60;1.70;;;;;;;13.80;100.00;93190.31;5010554;28;20120;-80
2023/09/05 00:04:02;;;;;;;2.72;1.58;;;;;;;13.79;100.00;93183.56;5015443;28;20042;-79
2023/09/05 00:06:29;;;;;;;3.70;1.65;;;;;;;13.79;100.00;93166.28;5028498;28;20542;-80
2023/09/05 00:08:57;;;;;;;2.40;1.50;;;;;;;13.86;100.00;93169.50;5017526;28;20046;-80
2023/09/05 00:11:25;;;;;;;2.25;1.60;;;;;;;14.03;100.00;93174.72;5010340;28;20104;-80
2023/09/05 00:13:52;;;;;;;1.98;1.48;;;;;;;13.96;100.00;93168.91;5014154;28;20045;-80
2023/09/05 00:16:18;;;;;;;2.22;1.50;;;;;;;13.95;100.00;93164.75;5014447;28;20491;-80
2023/09/05 00:18:45;;;;;;;2.50;1.40;;;;;;;13.91;100.00;93158.50;5018722;28;20053;-81
2023/09/05 00:21:18;;;;;;;2.58;1.88;;;;;;;14.05;100.00;93168.53;5020143;28;20115;-81
2023/09/05 00:23:45;;;;;;;2.53;1.88;;;;;;;13.97;100.00;93167.88;5016556;28;20053;-80
2023/09/05 00:26:13;;;;;;;2.13;1.50;;;;;;;14.05;100.00;93168.53;5015433;28;20053;-82
2023/09/05 00:28:41;;;;;;;1.90;1.02;;;;;;;14.05;100.00;93171.91;5019695;28;20095;-81
2023/09/05 00:31:07;;;;;;;1.83;1.15;;;;;;;14.12;100.00;93164.03;5019795;28;20033;-81
2023/09/05 00:33:34;;;;;;;1.63;1.02;;;;;;;14.08;100.00;93162.91;5015386;28;21197;-80
2023/09/05 00:36:01;;;;;;;1.92;1.40;;;;;;;14.11;100.00;93157.25;5021135;28;20103;-79
2023/09/05 00:38:27;;;;;;;2.10;1.30;;;;;;;14.16;100.00;93162.50;5018850;28;20056;-80
2023/09/05 00:40:54;;;;;;;2.00;1.30;;;;;;;14.09;100.00;93164.47;5019245;28;20077;-81
2023/09/05 00:43:23;;;;;;;1.92;1.10;;;;;;;14.10;100.00;93158.28;5019796;28;20053;-81
2023/09/05 00:45:52;;;;;;;2.15;1.40;;;;;;;14.05;100.00;93164.16;5019976;28;20064;-81
2023/09/05 00:48:27;;;;;;;1.80;1.13;;;;;;;13.83;100.00;93145.94;5020654;28;20037;-80
2023/09/05 00:50:56;;;;;;;1.75;1.08;;;;;;;13.89;100.00;93155.38;5019426;28;20263;-81
2023/09/05 00:53:24;;;;;;;2.30;1.40;;;;;;;13.84;100.00;93150.09;5017941;28;20140;-81
2023/09/05 00:55:51;;;;;;;2.08;1.10;;;;;;;13.84;100.00;93143.13;5017456;28;20049;-81
2023/09/05 00:58:18;;;;;;;2.28;1.50;;;;;;;13.80;100.00;93151.56;5018984;28;20487;-79
2023/09/05 01:00:46;;;;;;;2.20;1.42;;;;;;;13.83;100.00;93151.91;5016724;28;20104;-80
2023/09/05 01:03:13;;;;;;;2.15;1.27;;;;;;;13.74;100.00;93132.63;5016532;28;20045;-80
2023/09/05 01:05:47;;;;;;;2.10;1.38;;;;;;;13.83;100.00;93146.72;5019415;28;20092;-80
2023/09/05 01:08:17;;;;;;;2.10;1.48;;;;;;;13.87;100.00;93149.63;5021470;28;20099;-79
2023/09/05 01:10:52;;;;;;;2.10;1.40;;;;;;;13.69;100.00;93123.00;5018757;28;20095;-80
2023/09/05 01:13:24;;;;;;;2.10;1.33;;;;;;;13.74;100.00;93128.25;5018776;28;20049;-80
2023/09/05 01:15:52;;;;;;;2.47;1.50;;;;;;;13.74;100.00;93106.81;5017565;28;20045;-80
2023/09/05 01:18:19;;;;;;;2.92;1.40;;;;;;;13.83;100.00;93131.25;5018897;28;20519;-79
2023/09/05 01:20:55;;;;;;;3.42;1.92;;;;;;;13.83;100.00;93135.59;5020012;28;20409;-79
2023/09/05 01:23:29;;;;;;;2.50;1.50;;;;;;;13.81;100.00;93122.94;5018313;28;20049;-79
2023/09/05 01:25:59;;;;;;;2.78;1.70;;;;;;;13.84;100.00;93147.53;5016249;28;20077;-80
2023/09/05 01:28:26;;;;;;;2.60;1.80;;;;;;;13.90;100.00;93121.53;5020008;28;20041;-81
2023/09/05 01:30:54;;;;;;;2.78;1.45;;;;;;;13.82;100.00;93121.94;5018197;28;20042;-79
2023/09/05 01:33:21;;;;;;;2.50;1.90;;;;;;;13.80;100.00;93110.28;5014601;28;20129;-81
2023/09/05 01:35:48;;;;;;;2.50;1.63;;;;;;;13.86;100.00;93104.19;5017389;28;20045;-79
2023/09/05 01:38:14;;;;;;;3.50;2.10;;;;;;;13.97;100.00;93118.81;5015743;28;20081;-79
2023/09/05 01:40:41;;;;;;;3.03;2.05;;;;;;;13.96;100.00;93116.47;5013857;28;20045;-80
2023/09/05 01:43:09;;;;;;;3.78;2.60;;;;;;;13.98;100.00;93114.47;5018016;28;20570;-80
2023/09/05 01:45:36;;;;;;;3.10;2.28;;;;;;;13.87;100.00;93087.66;5021361;28;20760;-78
2023/09/05 01:48:02;;;;;;;3.50;2.80;;;;;;;13.98;100.00;93086.81;5016397;28;20045;-77
2023/09/05 01:50:32;;;;;;;3.88;2.30;;;;;;;14.01;100.00;93099.28;5016444;28;20045;-77
2023/09/05 01:52:59;;;;;;;3.45;2.47;;;;;;;14.00;100.00;93108.03;5016986;28;20141;-77
2023/09/05 01:55:25;;;;;;;3.15;2.50;;;;;;;14.00;100.00;93115.78;5016074;28;20045;-78
2023/09/05 01:57:52;;;;;;;3.65;2.53;;;;;;;14.07;100.00;93123.38;5016729;28;20832;-79
2023/09/05 02:00:21;;;;;;;3.28;2.40;;;;;;;14.09;100.00;93118.78;5014214;28;20046;-79
2023/09/05 02:02:48;;;;;;;3.17;2.15;;;;;;;14.15;100.00;93132.53;5013564;28;20052;-78
2023/09/05 02:05:14;;;;;;;4.32;2.92;;;;;;;14.22;100.00;93129.81;5014654;28;20088;-78
2023/09/05 02:07:41;;;;;;;3.55;2.38;;;;;;;14.30;100.00;93145.72;5015518;28;20045;-79
2023/09/05 02:10:10;;;;;;;4.10;3.00;;;;;;;14.23;100.00;93134.75;5016899;28;20649;-78
2023/09/05 02:12:37;;;;;;;3.88;2.88;;;;;;;14.18;100.00;93105.47;5015999;28;20447;-77
2023/09/05 02:15:05;;;;;;;3.97;2.60;;;;;;;14.39;100.00;93148.69;5016139;28;20065;-77
2023/09/05 02:17:35;;;;;;;3.33;2.63;;;;;;;14.34;100.00;93158.19;5015773;28;20053;-77
2023/09/05 02:20:03;;;;;;;3.95;2.67;;;;;;;14.37;100.00;93162.84;5015249;28;20038;-78
2023/09/05 02:22:30;;;;;;;4.18;2.90;;;;;;;14.40;100.00;93155.41;5015000;28;20056;-78
2023/09/05 02:24:57;;;;;;;5.22;2.80;;;;;;;14.41;100.00;93162.16;5017188;28;20042;-78
2023/09/05 02:27:23;;;;;;;4.53;3.55;;;;;;;14.35;100.00;93157.91;5015404;28;20072;-77
2023/09/05 02:29:56;;;;;;;4.55;3.38;;;;;;;14.44;100.00;93166.06;5016114;28;20050;-77
2023/09/05 02:32:24;;;;;;;5.40;3.88;;;;;;;14.32;100.00;93173.09;5017208;28;20133;-76
2023/09/05 02:34:53;;;;;;;4.90;3.83;;;;;;;14.24;100.00;93153.59;5008356;28;20061;-76
2023/09/05 02:37:19;;;;;;;6.13;4.55;;;;;;;14.32;100.00;93155.03;5007636;28;20530;-75
2023/09/05 02:39:46;;;;;;;4.93;3.85;;;;;;;14.30;100.00;93155.25;5007950;28;20046;-76
2023/09/05 02:42:13;;;;;;;4.63;3.85;;;;;;;14.24;100.00;93149.22;5008732;28;20135;-76
2023/09/05 02:44:40;;;;;;;6.35;4.40;;;;;;;14.27;100.00;93155.72;5008210;28;20049;-77
2023/09/05 02:47:06;;;;;;;5.78;4.10;;;;;;;14.30;100.00;93163.00;5007628;28;20105;-77
2023/09/05 02:49:33;;;;;;;6.85;4.07;;;;;;;14.22;100.00;93153.06;5011106;28;20050;-77
2023/09/05 02:52:01;;;;;;;5.82;4.32;;;;;;;14.26;100.00;93159.34;5006354;28;20557;-77
2023/09/05 02:54:29;;;;;;;5.85;4.82;;;;;;;14.30;100.00;93168.97;5014536;28;20783;-77
2023/09/05 02:56:55;;;;;;;7.13;5.43;;;;;;;14.25;100.00;93158.53;5007567;28;20515;-77
2023/09/05 02:59:22;;;;;;;6.47;4.90;;;;;;;14.35;100.00;93164.91;5008022;28;20539;-77
2023/09/05 03:01:49;;;;;;;6.25;5.00;;;;;;;14.36;100.00;93169.06;5007472;28;20050;-77
2023/09/05 03:04:16;;;;;;;7.18;5.55;;;;;;;14.37;100.00;93168.03;5009699;28;20054;-77
2023/09/05 03:06:43;;;;;;;7.00;5.63;;;;;;;14.49;100.00;93171.31;5010711;28;20047;-77
2023/09/05 03:09:10;;;;;;;6.82;5.07;;;;;;;14.42;100.00;93166.31;5007794;28;20855;-76
2023/09/05 03:11:36;;;;;;;6.85;4.95;;;;;;;14.51;100.00;93171.09;5008800;28;20120;-76
2023/09/05 03:14:03;;;;;;;6.68;5.38;;;;;;;14.49;100.00;93160.97;5007711;28;20644;-76
2023/09/05 03:16:30;;;;;;;6.38;5.43;;;;;;;14.53;100.00;93171.63;5008329;28;20050;-76
2023/09/05 03:18:59;;;;;;;6.82;5.53;;;;;;;14.50;100.00;93191.00;5007044;28;20050;-76
2023/09/05 03:21:26;;;;;;;8.02;5.97;;;;;;;14.56;100.00;93186.69;5025416;28;20100;-77
2023/09/05 03:23:53;;;;;;;7.65;5.85;;;;;;;14.61;100.00;93188.56;5014660;28;20120;-76
2023/09/05 03:26:21;;;;;;;7.25;6.00;;;;;;;14.69;100.00;93185.59;5007543;28;20092;-77
2023/09/05 03:28:47;;;;;;;6.70;5.60;;;;;;;14.40;100.00;93183.84;5009088;28;20050;-78
2023/09/05 03:31:14;;;;;;;8.38;6.38;;;;;;;14.40;100.00;93180.50;5019372;28;20111;-76
2023/09/05 03:33:41;;;;;;;6.88;5.63;;;;;;;14.35;100.00;93188.16;5007595;28;20120;-76
2023/09/05 03:36:09;;;;;;;8.23;6.78;;;;;;;14.27;100.00;93182.34;5017111;28;20046;-76
2023/09/05 03:38:35;;;;;;;7.25;6.07;;;;;;;14.26;100.00;93192.94;5016406;28;20073;-76
2023/09/05 03:41:02;;;;;;;8.38;6.75;;;;;;;14.24;100.00;93174.28;5016756;28;20565;-76
2023/09/05 03:43:30;;;;;;;12.25;7.57;;;;;;;14.36;100.00;93197.47;5017219;28;20045;-76
2023/09/05 03:45:57;;;;;;;8.23;6.75;;;;;;;14.22;100.00;93192.59;5014422;28;20046;-77
2023/09/05 03:48:23;;;;;;;8.13;6.60;;;;;;;14.23;100.00;93207.09;5018681;28;20089;-77
2023/09/05 03:50:50;;;;;;;9.15;7.50;;;;;;;14.27;100.00;93203.00;5015902;28;20119;-77
2023/09/05 03:53:17;;;;;;;7.35;6.18;;;;;;;14.27;100.00;93207.41;5015719;28;20045;-77
2023/09/05 03:55:45;;;;;;;8.43;7.15;;;;;;;14.29;100.00;93216.50;5017578;28;20049;-77
2023/09/05 03:58:12;;;;;;;9.90;7.75;;;;;;;14.21;100.00;93209.09;5015526;28;20156;-77
2023/09/05 04:00:40;;;;;;;9.43;7.07;;;;;;;14.35;100.00;93214.75;5012491;28;20474;-77
2023/09/05 04:03:10;;;;;;;8.82;7.70;;;;;;;14.46;100.00;93202.00;5007135;28;20120;-77
2023/09/05 04:05:37;;;;;;;11.60;8.20;;;;;;;14.32;100.00;93214.44;5016280;28;20046;-77
2023/09/05 04:08:07;;;;;;;11.48;8.73;;;;;;;14.35;100.00;93198.50;5016129;28;20558;-78
2023/09/05 04:10:34;;;;;;;11.07;8.82;;;;;;;14.43;100.00;93208.44;5017484;28;20050;-78
2023/09/05 04:13:00;;;;;;;10.68;9.07;;;;;;;14.40;100.00;93206.34;5015210;28;20046;-77
2023/09/05 04:15:27;;;;;;;12.38;10.50;;;;;;;14.50;100.00;93211.66;5016602;28;20057;-77
2023/09/05 04:17:55;;;;;;;11.10;9.75;;;;;;;14.36;100.00;93202.63;5019101;28;20058;-78
2023/09/05 04:20:22;;;;;;;13.35;10.45;;;;;;;14.41;100.00;93202.72;5013787;28;20038;-77
2023/09/05 04:22:49;;;;;;;12.85;9.85;;;;;;;14.36;100.00;93194.88;5014756;28;20065;-77
2023/09/05 04:25:16;;;;;;;12.38;9.80;;;;;;;14.36;100.00;93187.94;5019347;28;20423;-76
2023/09/05 04:27:42;;;;;;;12.55;10.23;;;;;;;14.28;100.00;93188.28;5017228;28;20396;-76
2023/09/05 04:30:10;;;;;;;13.07;10.55;;;;;;;14.09;100.00;93179.97;5015928;28;20088;-76
2023/09/05 04:32:37;;;;;;;12.70;10.65;;;;;;;14.05;100.00;93189.19;5016052;28;20567;-78
2023/09/05 04:35:06;;;;;;;11.90;10.40;;;;;;;14.08;100.00;93183.56;5018709;28;20092;-77
2023/09/05 04:37:33;;;;;;;11.90;10.40;;;;;;;14.09;100.00;93190.28;5017914;28;20053;-77
2023/09/05 04:40:00;;;;;;;12.80;11.43;;;;;;;14.00;100.00;93166.63;5014104;28;20088;-76
2023/09/05 04:42:27;;;;;;;13.10;11.50;;;;;;;14.03;100.00;93189.44;5013407;28;20052;-75
2023/09/05 04:44:54;;;;;;;14.43;11.52;;;;;;;14.02;100.00;93193.00;5015899;28;21530;-76
2023/09/05 04:47:22;;;;;;;13.82;11.82;;;;;;;14.03;100.00;93186.84;5013707;28;20049;-77
2023/09/05 04:49:49;;;;;;;13.93;12.40;;;;;;;14.03;100.00;93184.28;5017581;28;20072;-77
2023/09/05 04:52:17;;;;;;;13.10;11.63;;;;;;;13.99;100.00;93183.16;5014514;28;20968;-76
2023/09/05 04:54:45;;;;;;;14.82;12.30;;;;;;;13.98;100.00;93177.19;5010305;28;21101;-76
2023/09/05 04:57:12;;;;;;;15.40;11.85;;;;;;;14.02;100.00;93178.31;5016163;28;20103;-75
2023/09/05 04:59:40;;;;;;;15.07;12.00;;;;;;;14.05;100.00;93179.66;5011646;28;20049;-75
2023/09/05 05:02:07;;;;;;;13.63;11.60;;;;;;;14.00;100.00;93174.38;5012631;28;20092;-75
2023/09/05 05:04:33;;;;;;;14.52;11.85;;;;;;;14.01;100.00;93176.75;5017150;28;20176;-75
2023/09/05 05:07:00;;;;;;;16.15;12.30;;;;;;;14.03;100.00;93187.63;5013468;28;20131;-75
2023/09/05 05:09:28;;;;;;;14.30;11.88;;;;;;;14.02;100.00;93187.84;5014507;28;20503;-76
2023/09/05 05:11:55;;;;;;;16.25;12.65;;;;;;;14.01;100.00;93191.44;5014708;28;20042;-77
2023/09/05 05:14:22;;;;;;;14.30;12.10;;;;;;;14.08;100.00;93184.38;5015836;28;20475;-76
2023/09/05 05:16:49;;;;;;;14.70;12.32;;;;;;;14.12;100.00;93177.69;5020354;28;20052;-77
2023/09/05 05:19:16;;;;;;;14.50;12.45;;;;;;;14.07;100.00;93190.53;5018966;28;20049;-76
2023/09/05 05:21:42;;;;;;;14.32;11.77;;;;;;;14.06;100.00;93178.63;5019083;28;20045;-76
2023/09/05 05:24:10;;;;;;;16.40;12.30;;;;;;;14.22;100.00;93168.56;5018818;28;20503;-77
2023/09/05 05:26:38;;;;;;;15.93;12.55;;;;;;;14.18;100.00;93164.88;5018655;28;20037;-77
2023/09/05 05:29:04;;;;;;;14.45;12.10;;;;;;;14.18;100.00;93157.91;5010314;28;20630;-77
2023/09/05 05:31:33;;;;;;;14.88;11.57;;;;;;;14.18;100.00;93152.75;5018208;28;20046;-77
2023/09/05 05:33:59;;;;;;;14.80;11.43;;;;;;;14.02;100.00;93144.75;5017776;28;20132;-76
2023/09/05 05:36:26;;;;;;;14.10;12.07;;;;;;;14.24;100.00;93184.59;5017593;28;20088;-77
2023/09/05 05:38:53;;;;;;;14.07;12.02;;;;;;;14.19;100.00;93172.41;5016290;28;20050;-78
2023/09/05 05:41:20;;;;;;;13.80;11.82;;;;;;;14.11;100.00;93165.00;5013380;28;20109;-77
2023/09/05 05:43:48;;;;;;;14.80;12.23;;;;;;;14.26;100.00;93187.75;5012234;28;20077;-77
2023/09/05 05:46:17;;;;;;;15.15;11.90;;;;;;;14.33;100.00;93182.41;5011298;28;20053;-77
2023/09/05 05:48:44;;;;;;;14.45;12.35;;;;;;;14.38;100.00;93191.06;5012676;28;20042;-77
2023/09/05 05:51:11;;;;;;;13.43;11.70;;;;;;;14.44;100.00;93184.16;5009720;28;20103;-77
2023/09/05 05:53:38;;;;;;;15.82;12.13;;;;;;;14.48;100.00;93195.59;5010719;28;20045;-76
2023/09/05 05:56:06;;;;;;;15.02;11.95;;;;;;;14.50;100.00;93206.50;5014170;28;20116;-77
2023/09/05 05:58:32;;;;;;;13.65;11.82;;;;;;;14.62;100.00;93208.22;5017095;28;20038;-77
2023/09/05 06:01:00;;;;;;;15.48;12.40;;;;;;;14.53;100.00;93208.59;5013000;28;20056;-77
2023/09/05 06:03:27;;;;;;;16.02;13.80;;;;;;;14.64;100.00;93208.78;5010215;28;20045;-77
2023/09/05 06:05:55;;;;;;;15.80;12.43;;;;;;;14.56;100.00;93218.50;5014063;28;20050;-76
2023/09/05 06:08:22;;;;;;;17.17;12.93;;;;;;;14.55;100.00;93224.66;5013844;28;20177;-77
2023/09/05 06:10:50;;;;;;;13.73;12.25;;;;;;;14.62;100.00;93226.34;5013270;28;20057;-77
2023/09/05 06:13:16;;;;;;;15.18;13.07;;;;;;;14.59;100.00;93237.13;5012090;28;20045;-77
2023/09/05 06:15:43;;;;;;;13.88;12.38;;;;;;;14.44;100.00;93204.81;5013896;28;20820;-77
2023/09/05 06:18:11;;;;;;;16.10;14.18;;;;;;;14.53;100.00;93224.13;5010591;28;20045;-77
2023/09/05 06:20:38;;;;;;;17.83;14.02;;;;;;;14.52;100.00;93237.25;5012327;28;20495;-77
2023/09/05 06:23:05;;;;;;;15.50;13.75;;;;;;;14.62;100.00;93234.09;5014991;28;20099;-77
2023/09/05 06:25:32;;;;;;;16.10;13.65;;;;;;;14.49;100.00;93235.16;5011077;28;20128;-77
2023/09/05 06:27:59;;;;;;;18.20;14.73;;;;;;;14.53;100.00;93234.44;5010850;28;20045;-78
2023/09/05 06:30:25;;;;;;;17.20;13.95;;;;;;;14.50;100.00;93247.84;5011460;28;20039;-78
2023/09/05 06:32:52;;;;;;;17.52;15.60;;;;;;;14.50;100.00;93247.84;5013594;28;20050;-80
2023/09/05 06:35:20;;;;;;;16.88;14.27;;;;;;;14.59;100.00;93252.63;5013753;28;20225;-79
2023/09/05 06:37:52;;;;;;;17.65;14.63;;;;;;;14.56;100.00;93246.13;5010482;28;20050;-78
2023/09/05 06:40:21;;;;;;;19.63;14.70;;;;;;;14.37;100.00;93254.09;5012986;28;20095;-77
2023/09/05 06:42:47;;;;;;;16.85;14.07;;;;;;;14.55;100.00;93249.75;5011993;28;20570;-77
2023/09/05 06:45:14;;;;;;;17.45;14.35;;;;;;;14.56;100.00;93248.72;5015203;28;20045;-77
2023/09/05 06:47:41;;;;;;;15.90;13.82;;;;;;;14.50;100.00;93231.56;5013896;28;20052;-76
2023/09/05 06:50:10;;;;;;;16.58;14.43;;;;;;;14.51;100.00;93243.47;5010550;28;20046;-77
2023/09/05 06:52:38;;;;;;;16.85;14.10;;;;;;;14.47;100.00;93242.34;5012770;28;20049;-76
2023/09/05 06:55:06;;;;;;;18.02;14.77;;;;;;;14.56;100.00;93239.16;5012047;28;20085;-77
2023/09/05 06:57:32;;;;;;;16.92;14.30;;;;;;;14.59;100.00;93255.22;5011334;28;20534;-77
2023/09/05 06:59:59;;;;;;;15.35;13.50;;;;;;;14.63;100.00;93257.09;5011847;28;20049;-76
2023/09/05 07:02:26;;;;;;;17.10;14.05;;;;;;;14.65;100.00;93247.31;5012875;28;20527;-77
2023/09/05 07:04:53;;;;;;;16.42;13.05;;;;;;;14.56;100.00;93256.47;5009055;28;20670;-77
2023/09/05 07:07:20;;;;;;;16.00;13.20;;;;;;;14.68;100.00;93259.00;5011710;28;20046;-77
2023/09/05 07:09:48;;;;;;;16.55;14.30;;;;;;;14.65;100.00;93268.00;5013322;28;20046;-77
2023/09/05 07:12:15;;;;;;;15.45;13.65;;;;;;;14.65;100.00;93268.00;5014600;28;20115;-78
2023/09/05 07:14:42;;;;;;;16.42;14.25;;;;;;;14.63;100.00;93262.25;5012408;28;20100;-78
2023/09/05 07:17:09;;;;;;;16.17;13.77;;;;;;;14.75;100.00;93261.44;5011446;28;20066;-78
2023/09/05 07:19:36;;;;;;;17.42;13.20;;;;;;;15.03;100.00;93267.56;5012217;28;20053;-78
2023/09/05 07:22:03;;;;;;;14.65;12.55;;;;;;;15.13;100.00;93270.31;5010613;28;20049;-78
2023/09/05 07:24:30;;;;;;;16.98;12.60;;;;;;;14.82;100.00;93255.09;5010734;28;20041;-77
2023/09/05 07:26:58;;;;;;;14.50;12.93;;;;;;;15.06;100.00;93264.53;5011122;28;20042;-77
2023/09/05 07:29:26;;;;;;;15.15;12.85;;;;;;;15.05;100.00;93281.84;5011730;28;20042;-77
2023/09/05 07:31:52;;;;;;;12.60;11.30;;;;;;;15.00;100.00;93284.34;5011158;28;20058;-78
2023/09/05 07:34:19;;;;;;;13.18;11.48;;;;;;;15.05;100.00;93273.31;5010116;28;20697;-77
2023/09/05 07:36:46;;;;;;;13.50;11.77;;;;;;;15.25;100.00;93267.66;5010539;28;20456;-77
2023/09/05 07:39:13;;;;;;;12.88;11.20;;;;;;;15.45;100.00;93274.13;5010553;28;20104;-77
2023/09/05 07:41:40;;;;;;;13.60;11.40;;;;;;;15.51;100.00;93293.91;5012512;28;20180;-75
2023/09/05 07:44:08;;;;;;;13.25;11.05;;;;;;;15.69;100.00;93299.81;5008736;28;20078;-78
2023/09/05 07:46:37;;;;;;;10.68;9.57;;;;;;;15.50;100.00;93285.34;5010798;28;20092;-78
2023/09/05 07:49:05;;;;;;;12.15;10.57;;;;;;;15.72;100.00;93283.78;5009138;28;20096;-78
2023/09/05 07:51:32;;;;;;;13.40;10.75;;;;;;;15.72;100.00;93302.72;5011858;28;20052;-77
2023/09/05 07:54:04;;;;;;;11.88;10.48;;;;;;;15.75;100.00;93291.09;5013313;28;20081;-78
2023/09/05 07:56:31;;;;;;;12.05;9.88;;;;;;;15.96;100.00;93307.69;5012521;28;20060;-78
2023/09/05 07:58:58;;;;;;;11.90;9.95;;;;;;;16.06;100.00;93314.03;5012497;28;20079;-79
2023/09/05 08:01:26;;;;;;;11.02;9.20;;;;;;;15.99;100.00;93316.78;5014086;28;20167;-78
2023/09/05 08:03:53;;;;;;;11.27;9.75;;;;;;;16.50;100.00;93313.22;5011589;28;20125;-79
2023/09/05 08:06:20;;;;;;;10.70;8.90;;;;;;;16.18;100.00;93278.41;5011150;28;20093;-78
2023/09/05 08:08:47;;;;;;;11.15;9.27;;;;;;;16.49;100.00;93304.66;5011951;28;20151;-78
2023/09/05 08:11:13;;;;;;;10.52;9.40;;;;;;;16.60;100.00;93315.13;5013649;28;20076;-78
2023/09/05 08:13:40;;;;;;;10.05;8.40;;;;;;;16.18;100.00;93304.31;5012540;28;20144;-78
2023/09/05 08:16:07;;;;;;;11.30;9.82;;;;;;;16.15;100.00;93291.84;5011998;28;20054;-78
2023/09/05 08:18:35;;;;;;;10.70;8.10;;;;;;;16.24;100.00;93292.22;5012761;28;20583;-78
2023/09/05 08:21:04;;;;;;;10.60;8.60;;;;;;;15.98;100.00;93277.13;5011620;28;20053;-78
2023/09/05 08:23:31;;;;;;;11.00;9.70;;;;;;;16.35;100.00;93291.31;5013927;28;20081;-79
2023/09/05 08:25:57;;;;;;;9.85;8.00;;;;;;;16.64;100.00;93308.44;5014444;28;20049;-78
2023/09/05 08:28:26;;;;;;;9.68;8.32;;;;;;;16.24;100.00;93297.41;5011323;28;20598;-77
2023/09/05 08:30:59;;;;;;;10.13;8.18;;;;;;;16.36;100.00;93305.81;5015762;28;20052;-81
2023/09/05 08:33:25;;;;;;;11.30;8.30;;;;;;;16.45;100.00;93295.81;5014201;28;20141;-79
2023/09/05 08:35:54;;;;;;;11.55;8.40;;;;;;;16.79;100.00;93294.81;5018606;28;20051;-79
2023/09/05 08:38:21;;;;;;;9.05;8.02;;;;;;;17.13;100.00;93293.84;5016718;28;20050;-79
2023/09/05 08:40:48;;;;;;;9.98;7.78;;;;;;;16.99;100.00;93314.19;5014775;28;20042;-78
2023/09/05 08:43:17;;;;;;;9.77;8.65;;;;;;;17.02;100.00;93314.47;5014560;28;20507;-80
2023/09/05 08:45:45;;;;;;;10.55;7.45;;;;;;;17.22;100.00;93319.06;5014552;28;20108;-81
2023/09/05 08:48:12;;;;;;;10.63;8.10;;;;;;;17.17;100.00;93319.03;5012334;28;20364;-78
2023/09/05 08:50:40;;;;;;;8.80;7.80;;;;;;;17.07;100.00;93322.34;5014238;28;20092;-79
2023/09/05 08:53:11;;;;;;;9.75;7.95;;;;;;;17.45;100.00;93317.16;5013128;28;20565;-79
2023/09/05 08:55:39;;;;;;;8.02;7.03;;;;;;;17.44;100.00;93336.38;5015781;28;20054;-80
2023/09/05 08:58:07;;;;;;;8.40;6.55;;;;;;;17.30;100.00;93328.22;5014333;28;20092;-78
2023/09/05 09:00:34;;;;;;;8.90;7.50;;;;;;;17.58;100.00;93346.31;5014882;28;20633;-78
2023/09/05 09:03:03;;;;;;;8.20;7.05;;;;;;;17.59;100.00;93347.91;5012542;28;20223;-79
2023/09/05 09:05:29;;;;;;;9.07;6.90;;;;;;;17.42;100.00;93354.03;5010629;28;20049;-79
2023/09/05 09:07:57;;;;;;;8.98;7.65;;;;;;;17.63;100.00;93348.94;5014283;28;20050;-79
2023/09/05 09:10:25;;;;;;;9.35;7.65;;;;;;;17.47;100.00;93324.69;5010549;28;20185;-79
2023/09/05 09:12:54;;;;;;;7.97;6.70;;;;;;;18.05;100.00;93341.41;5024486;28;20053;-78
2023/09/05 09:15:25;;;;;;;8.77;6.53;;;;;;;17.85;100.00;93341.03;5015133;28;20081;-79
2023/09/05 09:17:53;;;;;;;9.55;6.82;;;;;;;17.61;100.00;93320.66;5009807;28;20115;-77
2023/09/05 09:20:22;;;;;;;8.20;7.18;;;;;;;17.81;100.00;93339.22;5011560;28;20115;-77
2023/09/05 09:22:50;;;;;;;9.85;7.40;;;;;;;18.01;100.00;93347.09;5021280;28;20072;-77
2023/09/05 09:25:20;;;;;;;8.95;6.53;;;;;;;18.14;100.00;93339.91;5019435;28;20060;-78
2023/09/05 09:27:53;;;;;;;8.50;6.07;;;;;;;18.00;100.00;93337.75;5010995;28;20046;-78
2023/09/05 09:30:23;;;;;;;8.45;6.00;;;;;;;17.88;100.00;93365.75;5010667;28;20065;-79
2023/09/05 09:32:51;;;;;;;8.82;5.78;;;;;;;17.74;100.00;93345.38;5020113;28;20052;-78
2023/09/05 09:35:18;;;;;;;8.05;6.07;;;;;;;17.46;100.00;93323.16;5018964;28;20100;-78
2023/09/05 09:37:46;;;;;;;6.75;5.65;;;;;;;17.92;100.00;93319.25;5013379;28;20095;-79
2023/09/05 09:40:16;;;;;;;6.65;5.63;;;;;;;17.92;100.00;93311.44;5020576;28;20145;-81
2023/09/05 09:42:46;;;;;;;6.15;5.22;;;;;;;17.97;100.00;93327.84;5015091;28;20060;-79
2023/09/05 09:45:14;;;;;;;6.80;5.50;;;;;;;17.85;100.00;93329.84;5009101;28;20045;-80
2023/09/05 09:47:47;;;;;;;5.90;4.97;;;;;;;18.09;100.00;93314.66;5009269;28;20092;-79
2023/09/05 09:50:14;;;;;;;7.10;5.18;;;;;;;18.37;100.00;93327.53;5012060;28;20045;-78
2023/09/05 09:52:44;;;;;;;6.65;5.18;;;;;;;18.42;100.00;93327.53;5014845;28;20050;-79
2023/09/05 09:55:13;;;;;;;7.65;4.63;;;;;;;18.61;100.00;93327.84;5022696;28;20512;-79
2023/09/05 09:57:47;;;;;;;6.78;5.25;;;;;;;18.66;100.00;93319.28;5018574;28;20075;-80
2023/09/05 10:00:18;;;;;;;6.05;5.45;;;;;;;18.79;100.00;93331.00;5010753;28;20054;-77
2023/09/05 10:02:46;;;;;;;5.63;4.53;;;;;;;18.72;100.00;93313.03;5010416;28;20572;-78
2023/09/05 10:05:15;;;;;;;7.55;4.85;;;;;;;18.51;100.00;93307.78;5011361;28;20058;-79
2023/09/05 10:07:42;;;;;;;5.45;4.60;;;;;;;18.60;100.00;93320.31;5010487;28;20044;-79
2023/09/05 10:10:15;;;;;;;7.75;5.30;;;;;;;18.52;100.00;93321.59;5009744;28;20140;-79
2023/09/05 10:12:44;;;;;;;5.55;4.63;;;;;;;18.81;100.00;93319.31;5011147;28;20045;-78
2023/09/05 10:15:12;;;;;;;7.82;4.70;;;;;;;19.05;100.00;93329.25;5010573;28;20050;-79
2023/09/05 10:17:42;;;;;;;7.03;4.45;;;;;;;18.90;100.00;93332.59;5009890;28;20046;-79
2023/09/05 10:20:14;;;;;;;6.50;4.28;;;;;;;18.50;100.00;93337.44;5009812;28;20417;-77
2023/09/05 10:22:43;;;;;;;5.90;5.15;;;;;;;18.78;100.00;93311.22;5011751;28;20068;-79
2023/09/05 10:25:12;;;;;;;6.75;4.20;;;;;;;19.24;100.00;93320.91;5020306;28;20165;-77
2023/09/05 10:27:39;;;;;;;9.75;5.18;;;;;;;19.30;98.38;93332.13;5014694;28;20165;-78
2023/09/05 10:30:10;;;;;;;5.30;4.47;;;;;;;19.42;97.22;93317.00;5010365;28;20077;-80
2023/09/05 10:32:37;;;;;;;5.30;4.20;;;;;;;19.29;97.25;93341.75;5010244;28;20056;-79
2023/09/05 10:35:07;;;;;;;5.05;3.85;;;;;;;19.01;94.29;93319.56;5014273;28;20049;-79
2023/09/05 10:37:51;;;;;;;4.72;3.70;;;;;;;19.21;94.05;93347.50;5012080;28;20045;-79
2023/09/05 10:40:18;;;;;;;5.35;3.38;;;;;;;19.25;93.43;93327.69;5010259;28;20053;-81
2023/09/05 10:42:50;;;;;;;4.70;3.38;;;;;;;19.45;91.43;93342.50;5020423;28;20049;-79
2023/09/05 10:45:30;;;;;;;5.32;3.80;;;;;;;19.72;90.35;93331.03;5014207;28;20050;-81
2023/09/05 10:48:08;;;;;;;6.03;3.42;;;;;;;19.92;90.07;93313.00;5012556;28;20648;-80
2023/09/05 10:51:08;;;;;;;4.72;3.10;;;;;;;20.05;89.85;93324.72;5013470;28;20614;-80
2023/09/05 10:53:36;;;;;;;4.22;3.38;;;;;;;19.82;88.38;93332.06;5011549;28;20072;-80
2023/09/05 10:56:03;;;;;;;4.03;3.00;;;;;;;19.77;89.99;93328.41;5011673;28;20108;-78
2023/09/05 10:58:47;;;;;;;5.10;3.08;;;;;;;19.82;88.61;93321.63;5010713;28;20430;-80
2023/09/05 11:01:48;;;;;;;4.82;3.00;;;;;;;19.76;88.88;93328.66;5008625;28;20132;-80
2023/09/05 11:04:26;;;;;;;6.30;3.28;;;;;;;19.88;88.46;93323.97;5008813;28;20092;-78
2023/09/05 11:06:59;;;;;;;4.57;3.10;;;;;;;19.67;89.13;93325.81;5010290;28;20059;-78
2023/09/05 11:09:26;;;;;;;4.78;2.92;;;;;;;19.52;88.24;93323.25;5009677;28;20120;-80
2023/09/05 11:11:55;;;;;;;4.72;3.22;;;;;;;19.63;88.57;93315.13;5015428;28;20578;-80
2023/09/05 11:14:32;;;;;;;6.45;3.45;;;;;;;19.32;87.48;93306.59;5007577;28;20045;-79
2023/09/05 11:16:59;;;;;;;4.80;3.20;;;;;;;19.42;89.31;93316.22;5009395;28;20674;-79
2023/09/05 11:19:37;;;;;;;5.78;3.30;;;;;;;19.61;87.90;93306.81;5008331;28;20053;-80
2023/09/05 11:22:19;;;;;;;4.70;3.67;;;;;;;19.39;87.48;93299.28;5009577;28;20042;-80
2023/09/05 11:24:48;;;;;;;4.50;3.40;;;;;;;19.54;88.09;93319.34;5009142;28;20414;-79